sensor_id;sensor_type;location;lat;lon;timestamp;P1;durP1;ratioP1;P2;durP2;ratioP2
19002;SDS011;9634;51.040;13.794;2022-08-19T00:04:35;14.77;;;11.87;;
19002;SDS011;9634;51.040;13.794;2022-08-19T00:09:39;17.10;;;12.47;;
19002;SDS011;9634;51.040;13.794;2022-08-19T00:14:41;16.27;;;12.07;;
19002;SDS011;9634;51.040;13.794;2022-08-19T00:19:43;17.73;;;13.60;;
19002;SDS011;9634;51.040;13.794;2022-08-19T00:24:47;23.23;;;13.57;;
19002;SDS011;9634;51.040;13.794;2022-08-19T00:29:49;19.83;;;15.10;;
19002;SDS011;9634;51.040;13.794;2022-08-19T00:34:52;32.33;;;15.23;;
19002;SDS011;9634;51.040;13.794;2022-08-19T00:39:55;19.37;;;14.53;;
19002;SDS011;9634;51.040;13.794;2022-08-19T00:44:58;19.97;;;15.03;;
19002;SDS011;9634;51.040;13.794;2022-08-19T00:50:00;19.97;;;14.17;;
19002;SDS011;9634;51.040;13.794;2022-08-19T00:55:05;20.60;;;15.47;;
19002;SDS011;9634;51.040;13.794;2022-08-19T01:00:12;20.73;;;14.93;;
19002;SDS011;9634;51.040;13.794;2022-08-19T01:05:20;21.57;;;15.03;;
19002;SDS011;9634;51.040;13.794;2022-08-19T01:10:27;22.50;;;15.87;;
19002;SDS011;9634;51.040;13.794;2022-08-19T01:15:33;23.03;;;16.20;;
19002;SDS011;9634;51.040;13.794;2022-08-19T01:20:40;19.80;;;14.97;;
19002;SDS011;9634;51.040;13.794;2022-08-19T01:25:47;20.43;;;15.40;;
19002;SDS011;9634;51.040;13.794;2022-08-19T01:30:50;24.20;;;16.40;;
19002;SDS011;9634;51.040;13.794;2022-08-19T01:35:54;21.17;;;15.43;;
19002;SDS011;9634;51.040;13.794;2022-08-19T01:41:07;22.80;;;16.00;;
19002;SDS011;9634;51.040;13.794;2022-08-19T01:46:09;23.63;;;16.30;;
19002;SDS011;9634;51.040;13.794;2022-08-19T01:51:12;21.20;;;16.67;;
19002;SDS011;9634;51.040;13.794;2022-08-19T01:56:16;22.17;;;17.13;;
19002;SDS011;9634;51.040;13.794;2022-08-19T02:01:19;24.40;;;16.93;;
19002;SDS011;9634;51.040;13.794;2022-08-19T02:06:21;20.53;;;16.10;;
19002;SDS011;9634;51.040;13.794;2022-08-19T02:11:26;22.87;;;16.40;;
19002;SDS011;9634;51.040;13.794;2022-08-19T02:16:32;23.30;;;18.43;;
19002;SDS011;9634;51.040;13.794;2022-08-19T02:21:34;21.20;;;16.50;;
19002;SDS011;9634;51.040;13.794;2022-08-19T02:26:38;25.50;;;17.47;;
19002;SDS011;9634;51.040;13.794;2022-08-19T02:31:41;21.97;;;17.77;;
19002;SDS011;9634;51.040;13.794;2022-08-19T02:36:44;22.73;;;16.60;;
19002;SDS011;9634;51.040;13.794;2022-08-19T02:41:47;22.77;;;17.33;;
19002;SDS011;9634;51.040;13.794;2022-08-19T02:46:52;25.77;;;18.80;;
19002;SDS011;9634;51.040;13.794;2022-08-19T02:51:55;22.83;;;17.27;;
19002;SDS011;9634;51.040;13.794;2022-08-19T02:56:59;23.00;;;17.33;;
19002;SDS011;9634;51.040;13.794;2022-08-19T03:02:01;25.83;;;17.23;;
19002;SDS011;9634;51.040;13.794;2022-08-19T03:07:04;22.53;;;16.40;;
19002;SDS011;9634;51.040;13.794;2022-08-19T03:12:08;22.70;;;17.40;;
19002;SDS011;9634;51.040;13.794;2022-08-19T03:17:10;24.53;;;16.80;;
19002;SDS011;9634;51.040;13.794;2022-08-19T03:22:12;23.70;;;18.57;;
19002;SDS011;9634;51.040;13.794;2022-08-19T03:27:16;26.20;;;17.57;;
19002;SDS011;9634;51.040;13.794;2022-08-19T03:32:19;24.73;;;18.30;;
19002;SDS011;9634;51.040;13.794;2022-08-19T03:37:22;23.23;;;18.50;;
19002;SDS011;9634;51.040;13.794;2022-08-19T03:42:25;22.30;;;17.60;;
19002;SDS011;9634;51.040;13.794;2022-08-19T03:47:28;20.03;;;16.60;;
19002;SDS011;9634;51.040;13.794;2022-08-19T03:52:30;26.40;;;18.53;;
19002;SDS011;9634;51.040;13.794;2022-08-19T03:57:34;22.00;;;16.90;;
19002;SDS011;9634;51.040;13.794;2022-08-19T04:02:36;26.27;;;18.70;;
19002;SDS011;9634;51.040;13.794;2022-08-19T04:07:38;22.87;;;18.70;;
19002;SDS011;9634;51.040;13.794;2022-08-19T04:12:42;24.47;;;17.77;;
19002;SDS011;9634;51.040;13.794;2022-08-19T04:17:45;25.83;;;19.17;;
19002;SDS011;9634;51.040;13.794;2022-08-19T04:22:48;26.97;;;18.97;;
19002;SDS011;9634;51.040;13.794;2022-08-19T04:27:51;24.17;;;17.93;;
19002;SDS011;9634;51.040;13.794;2022-08-19T04:32:54;26.13;;;19.60;;
19002;SDS011;9634;51.040;13.794;2022-08-19T04:37:56;29.10;;;20.77;;
19002;SDS011;9634;51.040;13.794;2022-08-19T04:43:00;24.33;;;18.33;;
19002;SDS011;9634;51.040;13.794;2022-08-19T04:48:02;26.80;;;19.67;;
19002;SDS011;9634;51.040;13.794;2022-08-19T04:53:05;35.03;;;22.07;;
19002;SDS011;9634;51.040;13.794;2022-08-19T04:58:09;25.73;;;20.40;;
19002;SDS011;9634;51.040;13.794;2022-08-19T05:03:11;25.17;;;18.80;;
19002;SDS011;9634;51.040;13.794;2022-08-19T05:08:17;32.57;;;20.30;;
19002;SDS011;9634;51.040;13.794;2022-08-19T05:13:23;24.83;;;19.40;;
19002;SDS011;9634;51.040;13.794;2022-08-19T05:18:27;25.57;;;19.13;;
19002;SDS011;9634;51.040;13.794;2022-08-19T05:23:46;25.93;;;17.50;;
19002;SDS011;9634;51.040;13.794;2022-08-19T05:28:51;25.27;;;17.93;;
19002;SDS011;9634;51.040;13.794;2022-08-19T05:33:53;24.77;;;19.93;;
19002;SDS011;9634;51.040;13.794;2022-08-19T05:38:58;25.17;;;19.40;;
19002;SDS011;9634;51.040;13.794;2022-08-19T05:44:03;25.53;;;18.13;;
19002;SDS011;9634;51.040;13.794;2022-08-19T05:49:09;24.80;;;18.47;;
19002;SDS011;9634;51.040;13.794;2022-08-19T05:54:11;31.10;;;21.50;;
19002;SDS011;9634;51.040;13.794;2022-08-19T05:59:15;26.73;;;19.87;;
19002;SDS011;9634;51.040;13.794;2022-08-19T06:04:19;27.00;;;19.73;;
19002;SDS011;9634;51.040;13.794;2022-08-19T06:09:22;29.97;;;20.57;;
19002;SDS011;9634;51.040;13.794;2022-08-19T06:14:26;25.27;;;17.60;;
19002;SDS011;9634;51.040;13.794;2022-08-19T06:19:30;28.97;;;18.63;;
19002;SDS011;9634;51.040;13.794;2022-08-19T06:24:33;23.60;;;17.87;;
19002;SDS011;9634;51.040;13.794;2022-08-19T06:29:37;21.53;;;15.77;;
19002;SDS011;9634;51.040;13.794;2022-08-19T06:34:39;19.80;;;13.90;;
19002;SDS011;9634;51.040;13.794;2022-08-19T06:39:42;14.80;;;12.83;;
19002;SDS011;9634;51.040;13.794;2022-08-19T06:44:47;16.90;;;11.93;;
19002;SDS011;9634;51.040;13.794;2022-08-19T06:49:50;16.00;;;12.47;;
19002;SDS011;9634;51.040;13.794;2022-08-19T06:55:00;15.63;;;11.67;;
19002;SDS011;9634;51.040;13.794;2022-08-19T07:00:05;16.07;;;12.47;;
19002;SDS011;9634;51.040;13.794;2022-08-19T07:05:11;17.77;;;12.90;;
19002;SDS011;9634;51.040;13.794;2022-08-19T07:10:14;14.20;;;11.03;;
19002;SDS011;9634;51.040;13.794;2022-08-19T07:15:17;17.23;;;12.67;;
19002;SDS011;9634;51.040;13.794;2022-08-19T07:20:21;20.83;;;13.60;;
19002;SDS011;9634;51.040;13.794;2022-08-19T07:25:24;15.43;;;12.10;;
19002;SDS011;9634;51.040;13.794;2022-08-19T07:30:30;17.47;;;13.50;;
19002;SDS011;9634;51.040;13.794;2022-08-19T07:35:32;19.50;;;13.77;;
19002;SDS011;9634;51.040;13.794;2022-08-19T07:40:35;20.90;;;14.07;;
19002;SDS011;9634;51.040;13.794;2022-08-19T07:45:38;21.00;;;14.40;;
19002;SDS011;9634;51.040;13.794;2022-08-19T07:50:42;20.30;;;14.73;;
19002;SDS011;9634;51.040;13.794;2022-08-19T07:55:45;28.77;;;16.03;;
19002;SDS011;9634;51.040;13.794;2022-08-19T08:00:49;21.60;;;15.30;;
19002;SDS011;9634;51.040;13.794;2022-08-19T08:05:52;20.17;;;15.13;;
19002;SDS011;9634;51.040;13.794;2022-08-19T08:11:13;23.97;;;15.80;;
19002;SDS011;9634;51.040;13.794;2022-08-19T08:16:17;23.63;;;16.93;;
19002;SDS011;9634;51.040;13.794;2022-08-19T08:21:20;25.50;;;16.73;;
19002;SDS011;9634;51.040;13.794;2022-08-19T08:26:23;28.30;;;16.57;;
19002;SDS011;9634;51.040;13.794;2022-08-19T08:31:27;21.97;;;16.70;;
19002;SDS011;9634;51.040;13.794;2022-08-19T08:36:30;24.53;;;18.03;;
19002;SDS011;9634;51.040;13.794;2022-08-19T08:41:35;20.53;;;14.93;;
19002;SDS011;9634;51.040;13.794;2022-08-19T08:46:46;17.53;;;13.77;;
19002;SDS011;9634;51.040;13.794;2022-08-19T08:51:51;20.07;;;14.30;;
19002;SDS011;9634;51.040;13.794;2022-08-19T08:57:00;18.37;;;13.23;;
19002;SDS011;9634;51.040;13.794;2022-08-19T09:02:05;20.77;;;13.67;;
19002;SDS011;9634;51.040;13.794;2022-08-19T09:12:37;13.70;;;10.97;;
19002;SDS011;9634;51.040;13.794;2022-08-19T09:17:47;13.33;;;10.70;;
19002;SDS011;9634;51.040;13.794;2022-08-19T09:22:49;13.80;;;11.03;;
19002;SDS011;9634;51.040;13.794;2022-08-19T09:27:52;12.40;;;10.93;;
19002;SDS011;9634;51.040;13.794;2022-08-19T09:32:57;14.37;;;12.10;;
19002;SDS011;9634;51.040;13.794;2022-08-19T09:38:01;18.27;;;11.97;;
19002;SDS011;9634;51.040;13.794;2022-08-19T09:43:03;15.00;;;11.50;;
19002;SDS011;9634;51.040;13.794;2022-08-19T09:48:08;17.20;;;11.83;;
19002;SDS011;9634;51.040;13.794;2022-08-19T09:53:10;15.23;;;11.27;;
19002;SDS011;9634;51.040;13.794;2022-08-19T09:58:12;13.53;;;11.07;;
19002;SDS011;9634;51.040;13.794;2022-08-19T10:03:16;14.93;;;11.43;;
19002;SDS011;9634;51.040;13.794;2022-08-19T10:08:21;19.90;;;12.37;;
19002;SDS011;9634;51.040;13.794;2022-08-19T10:13:26;13.03;;;11.23;;
19002;SDS011;9634;51.040;13.794;2022-08-19T10:18:31;16.90;;;10.93;;
19002;SDS011;9634;51.040;13.794;2022-08-19T10:23:35;12.63;;;10.13;;
19002;SDS011;9634;51.040;13.794;2022-08-19T10:28:38;11.43;;;9.00;;
19002;SDS011;9634;51.040;13.794;2022-08-19T10:33:42;10.87;;;9.17;;
19002;SDS011;9634;51.040;13.794;2022-08-19T10:38:45;11.00;;;8.40;;
19002;SDS011;9634;51.040;13.794;2022-08-19T10:43:50;8.87;;;7.10;;
19002;SDS011;9634;51.040;13.794;2022-08-19T10:48:55;9.47;;;7.20;;
19002;SDS011;9634;51.040;13.794;2022-08-19T10:53:58;12.17;;;7.40;;
19002;SDS011;9634;51.040;13.794;2022-08-19T10:59:01;7.87;;;6.80;;
19002;SDS011;9634;51.040;13.794;2022-08-19T11:04:05;8.87;;;7.47;;
19002;SDS011;9634;51.040;13.794;2022-08-19T11:09:10;7.77;;;6.57;;
19002;SDS011;9634;51.040;13.794;2022-08-19T11:14:14;7.47;;;6.20;;
19002;SDS011;9634;51.040;13.794;2022-08-19T11:19:20;8.17;;;6.03;;
19002;SDS011;9634;51.040;13.794;2022-08-19T11:24:24;7.17;;;6.00;;
19002;SDS011;9634;51.040;13.794;2022-08-19T11:29:27;8.00;;;6.70;;
19002;SDS011;9634;51.040;13.794;2022-08-19T11:34:32;9.17;;;7.13;;
19002;SDS011;9634;51.040;13.794;2022-08-19T11:39:35;10.40;;;7.87;;
19002;SDS011;9634;51.040;13.794;2022-08-19T11:44:38;9.67;;;8.53;;
19002;SDS011;9634;51.040;13.794;2022-08-19T11:49:42;10.40;;;8.87;;
19002;SDS011;9634;51.040;13.794;2022-08-19T11:54:45;10.63;;;9.13;;
19002;SDS011;9634;51.040;13.794;2022-08-19T11:59:47;11.47;;;9.80;;
19002;SDS011;9634;51.040;13.794;2022-08-19T12:04:52;12.90;;;10.17;;
19002;SDS011;9634;51.040;13.794;2022-08-19T12:09:54;11.60;;;9.53;;
19002;SDS011;9634;51.040;13.794;2022-08-19T12:14:57;11.67;;;10.13;;
19002;SDS011;9634;51.040;13.794;2022-08-19T12:20:00;18.47;;;11.50;;
19002;SDS011;9634;51.040;13.794;2022-08-19T12:25:04;16.23;;;11.73;;
19002;SDS011;9634;51.040;13.794;2022-08-19T12:30:08;19.97;;;15.23;;
19002;SDS011;9634;51.040;13.794;2022-08-19T12:35:14;19.37;;;15.40;;
19002;SDS011;9634;51.040;13.794;2022-08-19T12:40:16;25.07;;;17.67;;
19002;SDS011;9634;51.040;13.794;2022-08-19T12:45:19;23.30;;;16.93;;
19002;SDS011;9634;51.040;13.794;2022-08-19T12:50:23;24.20;;;17.50;;
19002;SDS011;9634;51.040;13.794;2022-08-19T12:55:25;21.47;;;16.43;;
19002;SDS011;9634;51.040;13.794;2022-08-19T13:00:29;23.83;;;17.50;;
19002;SDS011;9634;51.040;13.794;2022-08-19T13:05:34;25.17;;;17.23;;
19002;SDS011;9634;51.040;13.794;2022-08-19T13:10:36;22.33;;;17.17;;
19002;SDS011;9634;51.040;13.794;2022-08-19T13:15:40;22.50;;;16.57;;
19002;SDS011;9634;51.040;13.794;2022-08-19T13:20:44;19.63;;;15.97;;
19002;SDS011;9634;51.040;13.794;2022-08-19T13:25:54;22.07;;;16.57;;
19002;SDS011;9634;51.040;13.794;2022-08-19T13:30:58;22.63;;;16.77;;
19002;SDS011;9634;51.040;13.794;2022-08-19T13:36:19;22.47;;;17.47;;
19002;SDS011;9634;51.040;13.794;2022-08-19T13:41:21;22.53;;;17.10;;
19002;SDS011;9634;51.040;13.794;2022-08-19T13:46:24;26.73;;;18.43;;
19002;SDS011;9634;51.040;13.794;2022-08-19T13:51:29;21.70;;;17.10;;
19002;SDS011;9634;51.040;13.794;2022-08-19T13:56:31;24.73;;;17.90;;
19002;SDS011;9634;51.040;13.794;2022-08-19T14:01:33;24.07;;;18.57;;
19002;SDS011;9634;51.040;13.794;2022-08-19T14:06:37;28.50;;;19.57;;
19002;SDS011;9634;51.040;13.794;2022-08-19T14:11:40;32.63;;;21.73;;
19002;SDS011;9634;51.040;13.794;2022-08-19T14:16:42;31.60;;;21.07;;
19002;SDS011;9634;51.040;13.794;2022-08-19T14:21:46;32.57;;;21.87;;
19002;SDS011;9634;51.040;13.794;2022-08-19T14:26:48;33.80;;;21.90;;
19002;SDS011;9634;51.040;13.794;2022-08-19T14:31:50;31.83;;;21.87;;
19002;SDS011;9634;51.040;13.794;2022-08-19T14:36:54;32.60;;;21.77;;
19002;SDS011;9634;51.040;13.794;2022-08-19T14:41:56;35.90;;;23.27;;
19002;SDS011;9634;51.040;13.794;2022-08-19T14:46:59;39.80;;;25.17;;
19002;SDS011;9634;51.040;13.794;2022-08-19T14:52:03;39.27;;;25.23;;
19002;SDS011;9634;51.040;13.794;2022-08-19T14:57:05;34.67;;;24.47;;
19002;SDS011;9634;51.040;13.794;2022-08-19T15:02:08;35.70;;;23.37;;
19002;SDS011;9634;51.040;13.794;2022-08-19T15:07:11;39.33;;;25.87;;
19002;SDS011;9634;51.040;13.794;2022-08-19T15:12:14;37.80;;;24.77;;
19002;SDS011;9634;51.040;13.794;2022-08-19T15:17:16;39.73;;;25.33;;
19002;SDS011;9634;51.040;13.794;2022-08-19T15:22:20;40.60;;;25.13;;
19002;SDS011;9634;51.040;13.794;2022-08-19T15:27:23;37.43;;;25.93;;
19002;SDS011;9634;51.040;13.794;2022-08-19T15:32:25;34.60;;;24.93;;
19002;SDS011;9634;51.040;13.794;2022-08-19T15:37:29;43.07;;;27.13;;
19002;SDS011;9634;51.040;13.794;2022-08-19T15:42:31;41.10;;;27.53;;
19002;SDS011;9634;51.040;13.794;2022-08-19T15:47:34;38.67;;;25.77;;
19002;SDS011;9634;51.040;13.794;2022-08-19T15:52:43;36.60;;;24.90;;
19002;SDS011;9634;51.040;13.794;2022-08-19T15:57:47;37.90;;;25.50;;
19002;SDS011;9634;51.040;13.794;2022-08-19T16:03:06;37.60;;;25.07;;
19002;SDS011;9634;51.040;13.794;2022-08-19T16:08:35;38.33;;;24.67;;
19002;SDS011;9634;51.040;13.794;2022-08-19T16:13:37;39.97;;;24.90;;
19002;SDS011;9634;51.040;13.794;2022-08-19T16:18:40;35.27;;;24.10;;
19002;SDS011;9634;51.040;13.794;2022-08-19T16:23:44;38.60;;;26.00;;
19002;SDS011;9634;51.040;13.794;2022-08-19T16:28:46;43.30;;;25.27;;
19002;SDS011;9634;51.040;13.794;2022-08-19T16:33:48;35.03;;;23.23;;
19002;SDS011;9634;51.040;13.794;2022-08-19T16:38:53;32.07;;;21.73;;
19002;SDS011;9634;51.040;13.794;2022-08-19T16:43:55;33.27;;;22.27;;
19002;SDS011;9634;51.040;13.794;2022-08-19T16:48:59;31.20;;;21.10;;
19002;SDS011;9634;51.040;13.794;2022-08-19T16:54:03;26.83;;;21.20;;
19002;SDS011;9634;51.040;13.794;2022-08-19T16:59:06;27.23;;;19.43;;
19002;SDS011;9634;51.040;13.794;2022-08-19T17:04:08;27.92;;;21.95;;
19002;SDS011;9634;51.040;13.794;2022-08-19T17:09:14;29.30;;;20.33;;
19002;SDS011;9634;51.040;13.794;2022-08-19T17:14:17;29.63;;;19.67;;
19002;SDS011;9634;51.040;13.794;2022-08-19T17:19:21;29.03;;;19.70;;
19002;SDS011;9634;51.040;13.794;2022-08-19T17:24:24;26.23;;;19.30;;
19002;SDS011;9634;51.040;13.794;2022-08-19T17:29:27;28.47;;;19.87;;
19002;SDS011;9634;51.040;13.794;2022-08-19T17:34:29;31.80;;;20.93;;
19002;SDS011;9634;51.040;13.794;2022-08-19T17:39:34;26.60;;;19.20;;
19002;SDS011;9634;51.040;13.794;2022-08-19T17:44:38;26.57;;;19.17;;
19002;SDS011;9634;51.040;13.794;2022-08-19T17:49:40;30.80;;;19.90;;
19002;SDS011;9634;51.040;13.794;2022-08-19T17:54:44;27.10;;;18.67;;
19002;SDS011;9634;51.040;13.794;2022-08-19T17:59:46;27.30;;;18.33;;
19002;SDS011;9634;51.040;13.794;2022-08-19T18:04:49;28.73;;;19.13;;
19002;SDS011;9634;51.040;13.794;2022-08-19T18:09:53;28.37;;;18.90;;
19002;SDS011;9634;51.040;13.794;2022-08-19T18:14:57;28.60;;;19.80;;
19002;SDS011;9634;51.040;13.794;2022-08-19T18:20:03;25.33;;;18.27;;
19002;SDS011;9634;51.040;13.794;2022-08-19T18:25:10;26.93;;;18.63;;
19002;SDS011;9634;51.040;13.794;2022-08-19T18:30:14;24.00;;;17.77;;
19002;SDS011;9634;51.040;13.794;2022-08-19T18:35:17;25.83;;;17.30;;
19002;SDS011;9634;51.040;13.794;2022-08-19T18:40:30;27.37;;;18.20;;
19002;SDS011;9634;51.040;13.794;2022-08-19T18:45:49;26.07;;;18.13;;
19002;SDS011;9634;51.040;13.794;2022-08-19T18:51:09;25.63;;;17.93;;
19002;SDS011;9634;51.040;13.794;2022-08-19T18:56:15;25.87;;;18.53;;
19002;SDS011;9634;51.040;13.794;2022-08-19T19:01:19;31.60;;;20.27;;
19002;SDS011;9634;51.040;13.794;2022-08-19T19:06:28;31.43;;;20.03;;
19002;SDS011;9634;51.040;13.794;2022-08-19T19:11:37;33.90;;;20.70;;
19002;SDS011;9634;51.040;13.794;2022-08-19T19:16:43;31.00;;;22.13;;
19002;SDS011;9634;51.040;13.794;2022-08-19T19:21:47;33.60;;;21.90;;
19002;SDS011;9634;51.040;13.794;2022-08-19T19:26:51;39.80;;;24.83;;
19002;SDS011;9634;51.040;13.794;2022-08-19T19:31:53;33.40;;;22.77;;
19002;SDS011;9634;51.040;13.794;2022-08-19T19:36:56;38.03;;;24.50;;
19002;SDS011;9634;51.040;13.794;2022-08-19T19:42:00;41.07;;;24.40;;
19002;SDS011;9634;51.040;13.794;2022-08-19T19:47:07;39.73;;;25.67;;
19002;SDS011;9634;51.040;13.794;2022-08-19T19:52:10;37.90;;;24.57;;
19002;SDS011;9634;51.040;13.794;2022-08-19T19:57:14;37.03;;;24.33;;
19002;SDS011;9634;51.040;13.794;2022-08-19T20:02:16;38.90;;;24.50;;
19002;SDS011;9634;51.040;13.794;2022-08-19T20:07:20;37.30;;;23.93;;
19002;SDS011;9634;51.040;13.794;2022-08-19T20:12:44;35.90;;;23.50;;
19002;SDS011;9634;51.040;13.794;2022-08-19T20:17:46;31.93;;;21.97;;
19002;SDS011;9634;51.040;13.794;2022-08-19T20:22:49;32.23;;;21.90;;
19002;SDS011;9634;51.040;13.794;2022-08-19T20:27:54;35.53;;;21.73;;
19002;SDS011;9634;51.040;13.794;2022-08-19T20:32:56;34.53;;;21.97;;
19002;SDS011;9634;51.040;13.794;2022-08-19T20:37:59;37.07;;;22.70;;
19002;SDS011;9634;51.040;13.794;2022-08-19T20:43:06;38.07;;;24.00;;
19002;SDS011;9634;51.040;13.794;2022-08-19T20:48:10;37.77;;;23.60;;
19002;SDS011;9634;51.040;13.794;2022-08-19T20:53:13;34.70;;;23.33;;
19002;SDS011;9634;51.040;13.794;2022-08-19T20:58:19;33.83;;;23.67;;
19002;SDS011;9634;51.040;13.794;2022-08-19T21:03:23;36.70;;;23.73;;
19002;SDS011;9634;51.040;13.794;2022-08-19T21:08:27;32.80;;;22.57;;
19002;SDS011;9634;51.040;13.794;2022-08-19T21:13:31;34.63;;;21.93;;
19002;SDS011;9634;51.040;13.794;2022-08-19T21:18:33;34.77;;;22.50;;
19002;SDS011;9634;51.040;13.794;2022-08-19T21:23:36;34.33;;;21.97;;
19002;SDS011;9634;51.040;13.794;2022-08-19T21:28:39;32.43;;;21.57;;
19002;SDS011;9634;51.040;13.794;2022-08-19T21:33:42;35.67;;;23.13;;
19002;SDS011;9634;51.040;13.794;2022-08-19T21:38:45;37.83;;;22.47;;
19002;SDS011;9634;51.040;13.794;2022-08-19T21:43:49;31.00;;;20.23;;
19002;SDS011;9634;51.040;13.794;2022-08-19T21:48:51;34.40;;;21.87;;
19002;SDS011;9634;51.040;13.794;2022-08-19T21:53:54;32.40;;;20.90;;
19002;SDS011;9634;51.040;13.794;2022-08-19T21:58:58;34.87;;;21.80;;
19002;SDS011;9634;51.040;13.794;2022-08-19T22:04:00;26.80;;;18.00;;
19002;SDS011;9634;51.040;13.794;2022-08-19T22:09:02;28.63;;;19.27;;
19002;SDS011;9634;51.040;13.794;2022-08-19T22:14:06;29.73;;;19.60;;
19002;SDS011;9634;51.040;13.794;2022-08-19T22:19:08;29.80;;;19.13;;
19002;SDS011;9634;51.040;13.794;2022-08-19T22:24:11;29.90;;;18.23;;
19002;SDS011;9634;51.040;13.794;2022-08-19T22:29:15;30.47;;;19.90;;
19002;SDS011;9634;51.040;13.794;2022-08-19T22:34:17;31.03;;;20.70;;
19002;SDS011;9634;51.040;13.794;2022-08-19T22:39:19;28.93;;;17.83;;
19002;SDS011;9634;51.040;13.794;2022-08-19T22:44:23;30.30;;;18.60;;
19002;SDS011;9634;51.040;13.794;2022-08-19T22:49:26;26.63;;;17.93;;
19002;SDS011;9634;51.040;13.794;2022-08-19T22:54:28;29.73;;;17.80;;
19002;SDS011;9634;51.040;13.794;2022-08-19T22:59:32;30.80;;;19.37;;
19002;SDS011;9634;51.040;13.794;2022-08-19T23:04:34;28.97;;;18.27;;
19002;SDS011;9634;51.040;13.794;2022-08-19T23:09:37;28.77;;;19.33;;
19002;SDS011;9634;51.040;13.794;2022-08-19T23:14:41;29.57;;;19.27;;
19002;SDS011;9634;51.040;13.794;2022-08-19T23:19:44;28.10;;;18.70;;
19002;SDS011;9634;51.040;13.794;2022-08-19T23:24:46;28.87;;;18.83;;
19002;SDS011;9634;51.040;13.794;2022-08-19T23:29:50;31.23;;;18.80;;
19002;SDS011;9634;51.040;13.794;2022-08-19T23:35:10;34.57;;;21.43;;
19002;SDS011;9634;51.040;13.794;2022-08-19T23:40:13;33.90;;;21.00;;
19002;SDS011;9634;51.040;13.794;2022-08-19T23:45:19;34.70;;;20.90;;
19002;SDS011;9634;51.040;13.794;2022-08-19T23:50:23;35.93;;;21.07;;
19002;SDS011;9634;51.040;13.794;2022-08-19T23:55:27;32.83;;;20.67;;
